Time;durP1;ratioP1;P1;durP2;ratioP2;P2;SDS_P1;SDS_P2;PMS_P1;PMS_P2;Temp;Humidity;BMP_temperature;BMP_pressure;BME280_temperature;BME280_humidity;BME280_pressure;Samples;Min_cycle;Max_cycle;Signal;HPM_P1;HPM_P2
2021/09/10 00:00:46;;;;;;;11.00;9.53;;;20.50;96.40;;;;;;5052139;28;20485;-51
2021/09/10 00:03:12;;;;;;;10.43;9.33;;;20.30;96.40;;;;;;5052190;28;20460;-52
2021/09/10 00:05:40;;;;;;;13.97;10.17;;;20.30;96.40;;;;;;5052285;28;20439;-51
2021/09/10 00:08:07;;;;;;;17.53;10.73;;;20.30;96.50;;;;;;5050965;28;21046;-52
2021/09/10 00:10:34;;;;;;;15.10;10.30;;;20.30;96.50;;;;;;5052663;28;20446;-50
2021/09/10 00:13:01;;;;;;;13.57;10.50;;;20.30;96.50;;;;;;5054644;28;20456;-50
2021/09/10 00:15:27;;;;;;;14.20;11.30;;;20.30;96.60;;;;;;5052075;28;20431;-50
2021/09/10 00:17:54;;;;;;;12.67;10.30;;;20.30;96.60;;;;;;5051772;28;20427;-50
2021/09/10 00:20:21;;;;;;;12.17;10.47;;;20.30;96.70;;;;;;5052074;28;20432;-50
2021/09/10 00:22:49;;;;;;;13.50;10.50;;;20.30;96.80;;;;;;5051964;28;20459;-51
2021/09/10 00:25:15;;;;;;;12.53;10.80;;;20.30;96.90;;;;;;5052052;28;20434;-51
2021/09/10 00:27:42;;;;;;;12.67;10.70;;;20.20;96.90;;;;;;5051668;28;20474;-49
2021/09/10 00:30:10;;;;;;;13.33;10.00;;;20.20;97.00;;;;;;5052223;28;20853;-50
2021/09/10 00:32:36;;;;;;;13.40;10.20;;;20.20;97.10;;;;;;5051666;28;20466;-51
2021/09/10 00:35:04;;;;;;;14.47;10.50;;;20.10;97.20;;;;;;5052157;28;20838;-50
2021/09/10 00:37:30;;;;;;;13.10;10.73;;;20.10;97.40;;;;;;5051856;28;20557;-51
2021/09/10 00:39:58;;;;;;;13.60;10.87;;;20.10;97.50;;;;;;5051423;28;20952;-51
2021/09/10 00:42:25;;;;;;;13.27;10.47;;;20.00;97.60;;;;;;5052072;28;20474;-51
2021/09/10 00:44:51;;;;;;;15.40;10.07;;;20.00;97.70;;;;;;5051666;28;20435;-51
2021/09/10 00:47:18;;;;;;;16.27;10.80;;;20.00;97.90;;;;;;5051944;28;20475;-51
2021/09/10 00:49:45;;;;;;;11.87;10.67;;;19.90;98.00;;;;;;5051202;28;20442;-51
2021/09/10 00:52:12;;;;;;;12.30;11.00;;;19.90;98.10;;;;;;5051572;28;20512;-51
2021/09/10 00:54:39;;;;;;;12.80;10.43;;;19.90;98.20;;;;;;5051450;28;20438;-51
2021/09/10 00:57:07;;;;;;;14.37;11.10;;;19.90;98.30;;;;;;5051338;28;20492;-51
2021/09/10 00:59:34;;;;;;;11.00;9.90;;;19.80;98.30;;;;;;5050916;28;20909;-51
2021/09/10 01:02:01;;;;;;;11.57;10.37;;;19.80;98.30;;;;;;5051507;28;20443;-51
2021/09/10 01:04:28;;;;;;;11.73;10.53;;;19.80;98.40;;;;;;5051576;28;20932;-51
2021/09/10 01:06:56;;;;;;;11.33;10.23;;;19.80;98.50;;;;;;5051562;28;20450;-51
2021/09/10 01:09:25;;;;;;;12.70;11.27;;;19.80;98.50;;;;;;5051047;28;20439;-51
2021/09/10 01:11:53;;;;;;;10.80;9.70;;;19.80;98.50;;;;;;5051605;28;20873;-51
2021/09/10 01:14:21;;;;;;;12.23;10.60;;;19.80;98.60;;;;;;5051472;28;20442;-51
2021/09/10 01:16:48;;;;;;;14.30;11.83;;;19.80;99.00;;;;;;5050198;28;20458;-51
2021/09/10 01:19:27;;;;;;;11.50;9.40;;;19.80;98.70;;;;;;5052412;28;20441;-51
2021/09/10 01:21:56;;;;;;;11.63;10.37;;;19.80;98.90;;;;;;5055299;28;20799;-51
2021/09/10 01:24:28;;;;;;;12.83;11.50;;;19.80;98.90;;;;;;5058211;28;20426;-50
2021/09/10 01:26:55;;;;;;;14.77;10.57;;;19.80;99.00;;;;;;5055370;28;20453;-51
2021/09/10 01:29:21;;;;;;;11.60;9.67;;;19.80;99.00;;;;;;5054900;28;20533;-51
2021/09/10 01:31:48;;;;;;;13.87;10.80;;;19.70;99.10;;;;;;5055029;28;20434;-51
2021/09/10 01:34:15;;;;;;;13.23;11.83;;;19.70;99.10;;;;;;5053976;28;20442;-51
2021/09/10 01:36:41;;;;;;;12.87;11.57;;;19.70;99.20;;;;;;5055672;28;20441;-51
2021/09/10 01:39:08;;;;;;;11.70;10.47;;;19.70;99.30;;;;;;5054736;28;20427;-51
2021/09/10 01:41:36;;;;;;;13.07;10.33;;;19.70;99.40;;;;;;5055043;28;20925;-51
2021/09/10 01:44:03;;;;;;;13.00;11.60;;;19.70;99.40;;;;;;5054787;28;20465;-51
2021/09/10 01:46:29;;;;;;;13.13;10.87;;;19.70;99.50;;;;;;5054928;28;20446;-51
2021/09/10 01:48:56;;;;;;;12.23;11.03;;;19.70;99.50;;;;;;5054446;28;20469;-51
2021/09/10 01:51:29;;;;;;;13.43;10.20;;;19.70;99.60;;;;;;5054888;28;20450;-51
2021/09/10 01:53:56;;;;;;;16.63;11.00;;;19.70;99.70;;;;;;5054766;28;20489;-51
2021/09/10 01:56:22;;;;;;;12.70;11.27;;;19.60;99.70;;;;;;5054785;28;20441;-51
2021/09/10 01:58:50;;;;;;;12.63;11.33;;;19.60;99.80;;;;;;5054316;28;20437;-51
2021/09/10 02:01:21;;;;;;;12.00;10.80;;;19.60;99.90;;;;;;5053399;28;20450;-51
2021/09/10 02:03:48;;;;;;;12.70;11.57;;;19.60;99.90;;;;;;5054538;28;20458;-51
2021/09/10 02:06:14;;;;;;;12.37;11.17;;;19.50;99.90;;;;;;5054862;28;20787;-52
2021/09/10 02:08:41;;;;;;;12.13;11.00;;;19.60;99.90;;;;;;5054081;28;20481;-51
2021/09/10 02:11:08;;;;;;;12.50;11.30;;;19.60;99.90;;;;;;5054551;28;20444;-51
2021/09/10 02:13:34;;;;;;;13.13;11.83;;;19.50;99.90;;;;;;5054494;28;20458;-49
2021/09/10 02:16:02;;;;;;;14.30;12.67;;;19.50;99.90;;;;;;5054354;28;20442;-51
2021/09/10 02:18:29;;;;;;;12.27;10.90;;;19.50;99.90;;;;;;5053972;28;20445;-51
2021/09/10 02:20:55;;;;;;;13.80;12.50;;;19.50;99.90;;;;;;5054367;28;20445;-51
2021/09/10 02:23:22;;;;;;;16.50;12.20;;;19.40;99.90;;;;;;5054105;28;20462;-50
2021/09/10 02:25:48;;;;;;;13.50;12.13;;;19.40;99.90;;;;;;5054142;28;20437;-50
2021/09/10 02:28:15;;;;;;;12.63;11.30;;;19.40;99.90;;;;;;5053653;28;20466;-50
2021/09/10 02:30:42;;;;;;;12.20;10.90;;;19.30;99.90;;;;;;5053106;28;20556;-51
2021/09/10 02:33:10;;;;;;;12.30;11.00;;;19.30;99.90;;;;;;5053981;28;20458;-50
2021/09/10 02:35:36;;;;;;;13.97;12.40;;;19.30;99.90;;;;;;5053962;28;20458;-50
2021/09/10 02:38:03;;;;;;;16.33;12.50;;;19.20;99.90;;;;;;5054291;28;20434;-50
2021/09/10 02:40:30;;;;;;;16.97;12.60;;;19.20;99.90;;;;;;5052558;28;20446;-50
2021/09/10 02:42:56;;;;;;;13.63;12.23;;;19.20;99.90;;;;;;5053627;28;20470;-50
2021/09/10 02:45:23;;;;;;;14.10;12.10;;;19.20;99.90;;;;;;5053717;28;20434;-51
2021/09/10 02:47:50;;;;;;;13.17;11.87;;;19.20;99.90;;;;;;5053293;28;20482;-51
2021/09/10 02:50:18;;;;;;;14.40;13.00;;;19.10;99.90;;;;;;5053834;28;20427;-51
2021/09/10 02:52:45;;;;;;;16.40;13.03;;;19.10;99.90;;;;;;5052417;28;20592;-51
2021/09/10 02:55:12;;;;;;;13.90;12.60;;;19.10;99.90;;;;;;5053691;28;20445;-50
2021/09/10 02:57:39;;;;;;;15.00;13.40;;;19.10;99.90;;;;;;5053353;28;20477;-51
2021/09/10 03:00:07;;;;;;;14.07;12.40;;;19.10;99.90;;;;;;5053573;28;20441;-50
2021/09/10 03:02:36;;;;;;;15.33;13.73;;;19.20;99.90;;;;;;5053325;28;20449;-50
2021/09/10 03:05:03;;;;;;;14.37;12.90;;;19.00;99.90;;;;;;5053427;28;20949;-50
2021/09/10 03:07:31;;;;;;;13.27;12.07;;;19.10;99.90;;;;;;5053224;28;20439;-50
2021/09/10 03:09:58;;;;;;;14.57;12.10;;;19.10;99.90;;;;;;5052969;28;20433;-51
2021/09/10 03:12:25;;;;;;;14.40;13.00;;;19.10;99.90;;;;;;5053152;28;20460;-50
2021/09/10 03:14:51;;;;;;;13.20;11.80;;;19.10;99.90;;;;;;5053246;28;20433;-50
2021/09/10 03:17:18;;;;;;;13.73;12.43;;;19.10;99.90;;;;;;5053336;28;20438;-50
2021/09/10 03:19:45;;;;;;;14.80;13.30;;;19.10;99.90;;;;;;5052914;28;20430;-51
2021/09/10 03:22:11;;;;;;;16.20;13.77;;;19.30;99.90;;;;;;5052963;28;20458;-50
2021/09/10 03:24:40;;;;;;;15.87;13.40;;;19.10;99.90;;;;;;5052987;28;20441;-50
2021/09/10 03:27:07;;;;;;;15.20;13.57;;;19.10;99.90;;;;;;5053998;28;20438;-50
2021/09/10 03:29:33;;;;;;;19.07;14.27;;;19.10;99.90;;;;;;5053819;28;21024;-51
2021/09/10 03:32:00;;;;;;;14.73;13.27;;;19.00;99.90;;;;;;5053546;28;20850;-50
2021/09/10 03:34:29;;;;;;;15.10;12.63;;;19.10;99.90;;;;;;5053051;28;20440;-51
2021/09/10 03:36:56;;;;;;;18.13;14.03;;;19.00;99.90;;;;;;5052966;28;20480;-51
2021/09/10 03:39:23;;;;;;;14.43;12.93;;;19.00;99.90;;;;;;5052209;28;20919;-51
2021/09/10 03:41:51;;;;;;;14.73;13.20;;;19.00;99.90;;;;;;5052557;28;20434;-51
2021/09/10 03:44:18;;;;;;;17.43;14.00;;;19.00;99.90;;;;;;5052890;28;20441;-51
2021/09/10 03:46:44;;;;;;;15.30;13.80;;;18.90;99.90;;;;;;5054187;28;20442;-51
2021/09/10 03:49:11;;;;;;;15.10;13.50;;;18.90;99.90;;;;;;5052375;28;21007;-51
2021/09/10 03:51:38;;;;;;;18.57;13.70;;;18.90;99.90;;;;;;5052411;28;20434;-51
2021/09/10 03:54:05;;;;;;;14.87;13.37;;;18.90;99.90;;;;;;5051151;28;20478;-51
2021/09/10 03:56:32;;;;;;;16.57;13.73;;;18.90;99.90;;;;;;5052833;28;20856;-51
2021/09/10 03:59:00;;;;;;;15.33;13.80;;;18.90;99.90;;;;;;5052185;28;20457;-50
2021/09/10 04:01:27;;;;;;;16.03;14.33;;;18.90;99.90;;;;;;5051199;28;20458;-51
2021/09/10 04:03:53;;;;;;;16.20;14.50;;;18.90;99.90;;;;;;5052329;28;21055;-51
2021/09/10 04:06:20;;;;;;;14.77;13.27;;;18.90;99.90;;;;;;5052454;28;20526;-51
2021/09/10 04:08:48;;;;;;;16.13;14.53;;;18.90;99.90;;;;;;5051724;28;20481;-50
2021/09/10 04:11:16;;;;;;;15.37;13.77;;;18.80;99.90;;;;;;5052455;28;20472;-51
2021/09/10 04:13:43;;;;;;;14.43;12.80;;;18.80;99.90;;;;;;5052106;28;20833;-50
2021/09/10 04:16:10;;;;;;;14.50;13.07;;;18.80;99.90;;;;;;5052102;28;20473;-50
2021/09/10 04:18:37;;;;;;;17.10;15.40;;;18.80;99.90;;;;;;5051767;28;20484;-50
2021/09/10 04:21:04;;;;;;;17.93;15.70;;;18.80;99.90;;;;;;5051909;28;20926;-50
2021/09/10 04:23:30;;;;;;;19.63;16.43;;;18.60;99.90;;;;;;5051776;28;20809;-50
2021/09/10 04:25:57;;;;;;;16.80;14.97;;;18.80;99.90;;;;;;5051849;28;20434;-50
2021/09/10 04:28:23;;;;;;;16.67;15.00;;;18.80;99.90;;;;;;5050138;28;20477;-50
2021/09/10 04:30:50;;;;;;;15.83;14.17;;;18.80;99.90;;;;;;5051926;28;20438;-51
2021/09/10 04:33:20;;;;;;;16.77;14.97;;;18.80;99.90;;;;;;5051761;28;20457;-51
2021/09/10 04:35:47;;;;;;;21.20;14.57;;;18.80;99.90;;;;;;5051617;28;20562;-51
2021/09/10 04:38:14;;;;;;;17.17;15.23;;;18.80;99.90;;;;;;5051493;28;20783;-51
2021/09/10 04:40:41;;;;;;;16.83;14.30;;;18.80;99.90;;;;;;5051559;28;20427;-51
2021/09/10 04:43:07;;;;;;;15.67;13.90;;;18.80;99.90;;;;;;5051415;28;20469;-51
2021/09/10 04:45:34;;;;;;;20.90;15.80;;;18.70;99.90;;;;;;5051431;28;20436;-51
2021/09/10 04:48:01;;;;;;;17.30;15.63;;;19.00;99.90;;;;;;5050826;28;20491;-52
2021/09/10 04:50:29;;;;;;;16.40;14.77;;;18.80;99.90;;;;;;5051394;28;20433;-52
2021/09/10 04:52:55;;;;;;;17.63;15.40;;;18.80;99.90;;;;;;5051358;28;20515;-51
2021/09/10 04:55:22;;;;;;;20.20;15.97;;;18.80;99.90;;;;;;5051045;28;20937;-52
2021/09/10 04:57:49;;;;;;;13.93;12.70;;;18.80;99.90;;;;;;5053062;28;20439;-52
2021/09/10 05:00:15;;;;;;;15.73;14.17;;;18.80;99.90;;;;;;5052713;28;20411;-51
2021/09/10 05:02:42;;;;;;;17.50;15.80;;;18.80;99.90;;;;;;5051138;28;20465;-51
2021/09/10 05:05:11;;;;;;;17.43;15.63;;;18.80;99.90;;;;;;5051478;28;20934;-50
2021/09/10 05:07:38;;;;;;;18.77;16.87;;;18.90;99.90;;;;;;5050995;28;20450;-51
2021/09/10 05:10:06;;;;;;;17.10;15.60;;;18.90;99.90;;;;;;5051151;28;20485;-52
2021/09/10 05:12:33;;;;;;;18.13;16.20;;;18.90;99.90;;;;;;5051024;28;20567;-52
2021/09/10 05:14:59;;;;;;;19.97;16.60;;;18.90;99.90;;;;;;5050843;28;20473;-51
2021/09/10 05:17:26;;;;;;;17.23;14.20;;;19.00;99.90;;;;;;5051079;28;20927;-50
2021/09/10 05:19:52;;;;;;;18.00;14.93;;;19.00;99.90;;;;;;5050634;28;20442;-50
2021/09/10 05:22:19;;;;;;;16.20;14.47;;;19.00;99.90;;;;;;5051145;28;20461;-51
2021/09/10 05:24:47;;;;;;;17.00;15.30;;;19.00;99.90;;;;;;5050961;28;20434;-51
2021/09/10 05:27:13;;;;;;;17.90;16.10;;;19.10;99.90;;;;;;5049284;28;20455;-51
2021/09/10 05:29:40;;;;;;;17.47;15.67;;;19.10;99.90;;;;;;5050281;28;20476;-51
2021/09/10 05:32:07;;;;;;;16.77;14.27;;;19.10;99.90;;;;;;5050429;28;20458;-51
2021/09/10 05:34:34;;;;;;;17.20;15.70;;;19.10;99.90;;;;;;5049992;28;20433;-51
2021/09/10 05:37:00;;;;;;;17.43;15.60;;;19.20;99.90;;;;;;5050555;28;20772;-51
2021/09/10 05:39:27;;;;;;;16.47;14.63;;;19.20;99.90;;;;;;5050207;28;20433;-51
2021/09/10 05:41:55;;;;;;;16.30;14.70;;;19.30;99.90;;;;;;5049774;28;20435;-51
2021/09/10 05:44:22;;;;;;;18.00;15.50;;;19.40;99.90;;;;;;5050333;28;20445;-51
2021/09/10 05:46:48;;;;;;;18.33;16.40;;;19.40;99.90;;;;;;5050096;28;20437;-52
2021/09/10 05:49:15;;;;;;;15.67;14.20;;;19.60;99.90;;;;;;5047998;28;20486;-51
2021/09/10 05:51:41;;;;;;;17.57;15.77;;;19.60;99.90;;;;;;5050517;28;20527;-52
2021/09/10 05:54:08;;;;;;;18.33;15.50;;;19.70;99.90;;;;;;5050724;28;20441;-52
2021/09/10 05:56:35;;;;;;;17.27;15.63;;;19.80;99.90;;;;;;5049738;28;20819;-52
2021/09/10 05:59:03;;;;;;;17.67;15.80;;;19.80;99.90;;;;;;5050323;28;20450;-52
2021/09/10 06:01:29;;;;;;;18.67;16.70;;;19.90;99.90;;;;;;5050749;28;20431;-51
2021/09/10 06:03:56;;;;;;;17.43;15.40;;;20.00;99.90;;;;;;5050386;28;20450;-52
2021/09/10 06:06:22;;;;;;;20.10;16.87;;;20.00;99.90;;;;;;5050343;28;20945;-52
2021/09/10 06:08:49;;;;;;;16.30;14.70;;;20.10;99.90;;;;;;5053906;28;20485;-52
2021/09/10 06:11:16;;;;;;;20.90;16.60;;;20.20;99.90;;;;;;5055798;28;20440;-51
2021/09/10 06:13:42;;;;;;;21.23;16.33;;;20.20;99.90;;;;;;5053955;28;20455;-51
2021/09/10 06:16:10;;;;;;;21.77;15.87;;;20.30;99.90;;;;;;5053906;28;20446;-52
2021/09/10 06:18:37;;;;;;;16.77;15.17;;;20.50;99.90;;;;;;5053261;28;20438;-52
2021/09/10 06:21:03;;;;;;;21.83;15.73;;;20.40;99.90;;;;;;5053858;28;20479;-51
2021/09/10 06:23:30;;;;;;;18.97;17.03;;;20.50;99.90;;;;;;5053502;28;20833;-51
2021/09/10 06:25:57;;;;;;;17.00;15.47;;;20.50;99.90;;;;;;5053811;28;20801;-51
2021/09/10 06:28:24;;;;;;;17.70;15.90;;;20.20;99.90;;;;;;5052280;28;20442;-51
2021/09/10 06:30:50;;;;;;;17.20;15.53;;;20.60;99.90;;;;;;5053206;28;20493;-51
2021/09/10 06:33:18;;;;;;;19.90;17.07;;;20.50;99.90;;;;;;5053213;28;20451;-51
2021/09/10 06:35:45;;;;;;;21.77;16.60;;;20.70;99.90;;;;;;5053292;28;20435;-51
2021/09/10 06:38:11;;;;;;;19.70;17.13;;;20.70;99.90;;;;;;5052706;28;20432;-51
2021/09/10 06:40:38;;;;;;;18.50;16.43;;;20.80;99.90;;;;;;5053212;28;20450;-52
2021/09/10 06:43:05;;;;;;;23.23;16.90;;;20.80;99.90;;;;;;5053343;28;20478;-53
2021/09/10 06:45:31;;;;;;;19.50;17.40;;;20.90;99.90;;;;;;5053116;28;20432;-53
2021/09/10 06:47:59;;;;;;;20.17;17.30;;;20.90;99.90;;;;;;5052952;28;20425;-52
2021/09/10 06:50:27;;;;;;;24.30;17.50;;;21.00;99.90;;;;;;5052950;28;20495;-52
2021/09/10 06:52:54;;;;;;;23.93;16.40;;;21.00;99.90;;;;;;5053135;28;20470;-52
2021/09/10 06:55:21;;;;;;;19.30;17.20;;;21.10;99.90;;;;;;5053523;28;20756;-52
2021/09/10 06:57:47;;;;;;;19.90;16.90;;;21.10;99.90;;;;;;5053006;28;20427;-53
2021/09/10 07:00:15;;;;;;;29.90;18.33;;;21.10;99.90;;;;;;5052557;28;20455;-53
2021/09/10 07:02:42;;;;;;;23.43;16.87;;;21.20;99.90;;;;;;5052464;28;20451;-53
2021/09/10 07:05:09;;;;;;;19.67;17.67;;;21.20;99.90;;;;;;5053092;28;20439;-54
2021/09/10 07:07:37;;;;;;;18.30;16.03;;;21.30;99.90;;;;;;5052414;28;20478;-51
2021/09/10 07:10:05;;;;;;;19.53;16.93;;;21.40;99.90;;;;;;5052690;28;20495;-52
2021/09/10 07:12:32;;;;;;;17.67;15.97;;;21.40;99.90;;;;;;5052560;28;20946;-54
2021/09/10 07:14:58;;;;;;;19.87;17.97;;;21.50;99.90;;;;;;5052591;28;20528;-52
2021/09/10 07:17:25;;;;;;;20.17;16.90;;;21.50;99.90;;;;;;5052155;28;20434;-53
2021/09/10 07:19:52;;;;;;;17.97;16.27;;;21.40;99.90;;;;;;5052040;28;20441;-53
2021/09/10 07:22:18;;;;;;;19.20;16.63;;;21.60;99.90;;;;;;5052740;28;20469;-52
2021/09/10 07:24:46;;;;;;;16.97;15.37;;;21.60;99.90;;;;;;5052813;28;20441;-53
2021/09/10 07:27:13;;;;;;;17.43;15.63;;;21.60;99.90;;;;;;5052703;28;20516;-52
2021/09/10 07:29:40;;;;;;;18.83;16.03;;;21.70;99.90;;;;;;5052412;28;20473;-55
2021/09/10 07:32:07;;;;;;;18.70;15.17;;;21.80;99.90;;;;;;5051982;28;20450;-52
2021/09/10 07:34:34;;;;;;;16.07;14.47;;;21.80;99.90;;;;;;5052403;28;20535;-53
2021/09/10 07:37:01;;;;;;;17.20;15.40;;;21.60;99.90;;;;;;5052387;28;20440;-53
2021/09/10 07:39:27;;;;;;;20.57;15.23;;;21.90;99.90;;;;;;5052197;28;20525;-53
2021/09/10 07:41:55;;;;;;;15.60;14.10;;;21.90;99.90;;;;;;5051868;28;20445;-53
2021/09/10 07:44:22;;;;;;;15.33;13.83;;;21.90;99.90;;;;;;5050527;28;20988;-54
2021/09/10 07:46:52;;;;;;;16.60;14.90;;;21.90;99.90;;;;;;5052016;28;20429;-52
2021/09/10 07:49:18;;;;;;;15.77;13.60;;;22.00;99.90;;;;;;5051638;28;20536;-53
2021/09/10 07:51:45;;;;;;;16.10;14.40;;;22.00;99.90;;;;;;5052158;28;20430;-52
2021/09/10 07:54:12;;;;;;;14.47;13.27;;;22.10;99.90;;;;;;5052488;28;20442;-53
2021/09/10 07:56:39;;;;;;;15.90;14.20;;;22.10;99.90;;;;;;5052150;28;20521;-53
2021/09/10 07:59:07;;;;;;;15.30;13.70;;;22.20;99.90;;;;;;5051740;28;20930;-53
2021/09/10 08:01:33;;;;;;;14.50;13.00;;;22.20;99.90;;;;;;5052035;28;20430;-53
2021/09/10 08:04:01;;;;;;;15.10;13.50;;;22.10;99.90;;;;;;5051612;28;20536;-53
2021/09/10 08:06:28;;;;;;;14.77;13.30;;;22.30;99.90;;;;;;5052308;28;20477;-53
2021/09/10 08:08:55;;;;;;;15.23;13.47;;;22.40;99.90;;;;;;5051737;28;20433;-53
2021/09/10 08:11:21;;;;;;;16.67;14.70;;;22.50;99.90;;;;;;5051949;28;20986;-53
2021/09/10 08:13:48;;;;;;;15.17;13.10;;;22.50;99.90;;;;;;5051647;28;20966;-53
2021/09/10 08:16:16;;;;;;;12.93;11.77;;;22.60;99.90;;;;;;5051489;28;20449;-53
2021/09/10 08:18:42;;;;;;;17.50;13.20;;;22.60;99.90;;;;;;5051061;28;20434;-53
2021/09/10 08:21:09;;;;;;;15.20;13.70;;;22.60;99.90;;;;;;5051645;28;20440;-53
2021/09/10 08:23:40;;;;;;;17.03;13.87;;;22.70;99.90;;;;;;5049543;28;20490;-53
2021/09/10 08:26:06;;;;;;;14.40;11.40;;;22.70;99.90;;;;;;5051685;28;20544;-54
2021/09/10 08:28:33;;;;;;;12.90;11.50;;;22.70;99.90;;;;;;5050570;28;20935;-53
2021/09/10 08:31:00;;;;;;;15.60;12.20;;;22.80;99.90;;;;;;5051558;28;20481;-53
2021/09/10 08:33:27;;;;;;;15.70;13.27;;;22.80;99.90;;;;;;5051344;28;20450;-53
2021/09/10 08:35:54;;;;;;;16.00;12.80;;;22.90;99.90;;;;;;5052567;28;20427;-53
2021/09/10 08:38:21;;;;;;;13.97;12.47;;;22.90;99.90;;;;;;5051046;28;20956;-53
2021/09/10 08:40:48;;;;;;;12.30;11.20;;;23.00;99.90;;;;;;5049642;28;20995;-53
2021/09/10 08:43:14;;;;;;;13.70;11.70;;;23.00;99.90;;;;;;5050732;28;20467;-53
2021/09/10 08:45:42;;;;;;;13.03;11.73;;;23.00;99.90;;;;;;5050900;28;20439;-53
2021/09/10 08:48:10;;;;;;;15.13;12.70;;;23.00;99.90;;;;;;5050777;28;20428;-53
2021/09/10 08:50:38;;;;;;;11.83;10.73;;;23.10;99.90;;;;;;5050831;28;20501;-53
2021/09/10 08:53:05;;;;;;;13.33;12.00;;;23.10;99.90;;;;;;5051206;28;20469;-53
2021/09/10 08:55:32;;;;;;;16.73;11.47;;;23.10;99.90;;;;;;5050922;28;20462;-53
2021/09/10 08:57:59;;;;;;;16.73;12.20;;;23.20;99.90;;;;;;5049067;28;20456;-52
2021/09/10 09:00:30;;;;;;;13.13;11.30;;;23.20;99.90;;;;;;5050872;28;20531;-53
2021/09/10 09:02:58;;;;;;;12.73;11.43;;;23.30;99.90;;;;;;5050763;28;20463;-52
2021/09/10 09:05:25;;;;;;;14.03;11.97;;;23.30;99.90;;;;;;5050867;28;20444;-53
2021/09/10 09:08:04;;;;;;;10.80;9.80;;;23.40;99.90;;;;;;5050180;28;20482;-52
2021/09/10 09:10:49;;;;;;;14.80;11.27;;;23.40;99.90;;;;;;5050952;28;20493;-53
2021/09/10 09:13:17;;;;;;;12.27;10.83;;;23.50;99.90;;;;;;5050909;28;20447;-53
2021/09/10 09:15:43;;;;;;;12.73;9.60;;;23.50;99.90;;;;;;5050628;28;20471;-52
2021/09/10 09:18:10;;;;;;;12.17;9.77;;;23.60;99.90;;;;;;5050692;28;20443;-53
2021/09/10 09:20:37;;;;;;;11.77;10.57;;;23.60;99.90;;;;;;5050764;28;20433;-53
2021/09/10 09:23:06;;;;;;;11.00;9.93;;;23.70;99.90;;;;;;5050440;28;20456;-52
2021/09/10 09:25:35;;;;;;;11.73;10.20;;;23.70;99.90;;;;;;5050512;28;20817;-51
2021/09/10 09:28:18;;;;;;;12.20;10.90;;;23.70;99.90;;;;;;5050189;28;20441;-52
2021/09/10 09:30:46;;;;;;;12.13;10.60;;;23.80;99.90;;;;;;5051044;28;20473;-53
2021/09/10 09:33:14;;;;;;;9.30;8.50;;;23.80;99.90;;;;;;5050686;28;20828;-53
2021/09/10 09:35:42;;;;;;;10.50;9.40;;;23.90;99.90;;;;;;5050304;28;20475;-53
2021/09/10 09:38:18;;;;;;;10.53;9.40;;;24.00;99.90;;;;;;5050777;28;20446;-53
2021/09/10 09:40:45;;;;;;;10.27;9.20;;;24.00;99.90;;;;;;5052761;28;20644;-53
2021/09/10 09:43:18;;;;;;;10.70;9.70;;;24.10;99.90;;;;;;5054508;28;20465;-54
2021/09/10 09:45:49;;;;;;;11.27;10.20;;;24.10;99.90;;;;;;5054286;28;20470;-52
2021/09/10 09:48:17;;;;;;;10.37;9.47;;;24.10;99.90;;;;;;5053820;28;20521;-51
2021/09/10 09:50:45;;;;;;;9.83;8.63;;;24.20;99.90;;;;;;5055934;28;20481;-53
2021/09/10 09:53:13;;;;;;;11.03;10.00;;;24.30;99.90;;;;;;5054111;28;20449;-53
2021/09/10 09:55:41;;;;;;;10.07;9.10;;;24.30;99.90;;;;;;5054041;28;20446;-52
2021/09/10 09:58:08;;;;;;;9.10;7.77;;;24.30;99.90;;;;;;5054079;28;20440;-52
2021/09/10 10:00:36;;;;;;;9.77;8.80;;;24.40;99.90;;;;;;5054525;28;20440;-52
2021/09/10 10:03:04;;;;;;;9.03;8.20;;;24.40;99.90;;;;;;5054302;28;20449;-52
2021/09/10 10:05:32;;;;;;;15.27;9.50;;;24.40;99.90;;;;;;5053855;28;20511;-52
2021/09/10 10:08:04;;;;;;;11.43;10.33;;;24.40;99.90;;;;;;5053871;28;20444;-52
2021/09/10 10:10:38;;;;;;;10.80;9.27;;;24.50;99.90;;;;;;5053496;28;20962;-52
2021/09/10 10:13:06;;;;;;;10.07;9.17;;;24.60;99.90;;;;;;5053726;28;20535;-52
2021/09/10 10:15:33;;;;;;;11.43;8.63;;;24.60;99.90;;;;;;5053605;28;20440;-51
2021/09/10 10:18:00;;;;;;;10.40;8.10;;;24.70;99.90;;;;;;5053642;28;20541;-52
2021/09/10 10:20:53;;;;;;;8.80;7.47;;;24.70;99.90;;;;;;5053732;28;20810;-51
2021/09/10 10:23:58;;;;;;;7.97;7.17;;;24.80;99.90;;;;;;5053424;28;20973;-51
2021/09/10 10:26:41;;;;;;;7.90;7.10;;;24.80;99.90;;;;;;5053339;28;20798;-52
2021/09/10 10:29:13;;;;;;;7.90;7.17;;;24.90;99.90;;;;;;5053297;28;20434;-52
2021/09/10 10:32:00;;;;;;;12.43;7.63;;;24.90;99.90;;;;;;5053233;28;20478;-52
2021/09/10 10:34:28;;;;;;;9.90;8.57;;;24.90;99.90;;;;;;5053392;28;20526;-51
2021/09/10 10:36:55;;;;;;;9.60;7.33;;;24.90;99.90;;;;;;5052739;28;20919;-51
2021/09/10 10:39:28;;;;;;;9.03;8.13;;;24.90;99.90;;;;;;5052578;28;20439;-52
2021/09/10 10:41:59;;;;;;;9.63;7.90;;;24.90;99.90;;;;;;5052823;28;20815;-52
2021/09/10 10:44:49;;;;;;;9.33;7.00;;;25.00;99.90;;;;;;5053282;28;20466;-59
2021/09/10 10:47:17;;;;;;;8.30;7.10;;;25.00;99.90;;;;;;5052595;28;20466;-52
2021/09/10 10:49:46;;;;;;;8.73;7.80;;;25.10;99.90;;;;;;5052498;28;20791;-52
2021/09/10 10:52:38;;;;;;;8.60;7.90;;;25.10;99.90;;;;;;5052165;28;20834;-52
2021/09/10 10:55:25;;;;;;;10.00;8.67;;;25.10;99.90;;;;;;5034096;28;20461;-51
2021/09/10 10:57:54;;;;;;;11.70;8.67;;;25.20;99.90;;;;;;5052343;28;20607;-51
2021/09/10 11:00:45;;;;;;;12.43;11.23;;;25.20;99.90;;;;;;5052678;28;20458;-51
2021/09/10 11:03:32;;;;;;;10.97;9.97;;;25.30;99.90;;;;;;5054506;28;20457;-51
2021/09/10 11:06:19;;;;;;;9.50;8.00;;;25.30;99.80;;;;;;5052629;28;20442;-51
2021/09/10 11:08:45;;;;;;;8.83;7.37;;;25.40;99.50;;;;;;5052200;28;20952;-52
2021/09/10 11:11:12;;;;;;;8.50;7.70;;;25.40;99.20;;;;;;5052735;28;20472;-52
2021/09/10 11:13:42;;;;;;;9.80;7.33;;;25.50;99.10;;;;;;5052415;28;20458;-52
2021/09/10 11:16:09;;;;;;;10.13;9.23;;;25.50;99.20;;;;;;5052566;28;20430;-52
2021/09/10 11:18:38;;;;;;;13.73;9.17;;;25.50;99.30;;;;;;5052186;28;20436;-52
2021/09/10 11:21:06;;;;;;;11.57;8.17;;;25.50;99.40;;;;;;5052203;28;20430;-51
2021/09/10 11:23:36;;;;;;;9.07;8.17;;;25.50;99.40;;;;;;5052340;28;20446;-52
2021/09/10 11:26:05;;;;;;;7.47;6.73;;;25.50;99.30;;;;;;5052524;28;20490;-52
2021/09/10 11:28:34;;;;;;;9.90;7.57;;;25.60;99.70;;;;;;5052039;28;20737;-52
2021/09/10 11:31:03;;;;;;;8.10;7.30;;;25.60;99.30;;;;;;5052276;28;20574;-52
2021/09/10 11:33:39;;;;;;;8.73;7.33;;;25.70;99.20;;;;;;5052267;28;20533;-52
2021/09/10 11:36:06;;;;;;;11.00;8.77;;;25.70;99.30;;;;;;5051968;28;20438;-52
2021/09/10 11:38:33;;;;;;;16.97;9.50;;;25.80;99.40;;;;;;5051366;28;20433;-52
2021/09/10 11:41:02;;;;;;;9.23;8.40;;;25.80;99.30;;;;;;5052195;28;20427;-52
2021/09/10 11:43:32;;;;;;;10.10;9.10;;;25.90;99.40;;;;;;5051872;28;20911;-52
2021/09/10 11:46:03;;;;;;;8.20;7.50;;;25.90;99.30;;;;;;5052022;28;20546;-52
2021/09/10 11:48:33;;;;;;;8.97;7.90;;;25.90;99.30;;;;;;5051678;28;20430;-53
2021/09/10 11:51:03;;;;;;;8.33;7.50;;;26.00;99.20;;;;;;5051825;28;20474;-52
2021/09/10 11:53:33;;;;;;;9.53;8.70;;;26.00;99.20;;;;;;5051566;28;20466;-52
2021/09/10 11:56:04;;;;;;;8.27;7.47;;;26.10;99.00;;;;;;5051797;28;20430;-52
2021/09/10 11:58:39;;;;;;;12.57;7.33;;;26.10;98.90;;;;;;5051399;28;20507;-52
2021/09/10 12:01:16;;;;;;;10.23;8.30;;;26.10;98.80;;;;;;5051460;28;20430;-52
2021/09/10 12:03:47;;;;;;;10.77;8.30;;;26.20;98.70;;;;;;5050332;28;20479;-52
2021/09/10 12:06:18;;;;;;;9.90;7.97;;;26.20;98.60;;;;;;5050013;28;20952;-52
2021/09/10 12:09:06;;;;;;;8.60;7.70;;;26.20;98.60;;;;;;5051007;28;20415;-52
2021/09/10 12:11:33;;;;;;;9.60;8.70;;;26.30;98.70;;;;;;5051322;28;20903;-52
2021/09/10 12:14:00;;;;;;;8.47;7.70;;;26.30;98.60;;;;;;5049836;28;20497;-52
2021/09/10 12:16:30;;;;;;;8.17;7.37;;;26.40;98.50;;;;;;5053511;28;20489;-52
2021/09/10 12:19:02;;;;;;;11.93;7.63;;;26.50;98.30;;;;;;5051121;28;20469;-53
2021/09/10 12:21:29;;;;;;;8.43;7.73;;;26.60;97.90;;;;;;5049921;28;20542;-52
2021/09/10 12:24:07;;;;;;;8.67;7.60;;;26.70;97.70;;;;;;5050941;28;20457;-53
2021/09/10 12:26:50;;;;;;;9.47;8.53;;;26.80;97.40;;;;;;5051586;28;20435;-52
2021/09/10 12:29:23;;;;;;;8.60;7.80;;;26.90;97.00;;;;;;5051319;28;20483;-52
2021/09/10 12:31:53;;;;;;;10.30;7.13;;;27.00;97.00;;;;;;5051461;28;20490;-52
2021/09/10 12:34:20;;;;;;;8.03;7.33;;;27.10;96.80;;;;;;5051055;28;20434;-52
2021/09/10 12:36:47;;;;;;;13.03;8.60;;;27.10;96.60;;;;;;5050937;28;20431;-52